createdAt,value
2023-05-19T00:01:53.205Z,1.20
2023-05-19T00:04:21.236Z,1.00
2023-05-19T00:06:53.334Z,1.23
2023-05-19T00:09:22.851Z,1.20
2023-05-19T00:11:49.928Z,1.40
2023-05-19T00:14:17.038Z,0.95
2023-05-19T00:16:44.642Z,1.20
2023-05-19T00:19:11.482Z,1.25
2023-05-19T00:21:38.966Z,1.30
2023-05-19T00:24:07.617Z,1.20
2023-05-19T00:26:34.539Z,1.00
2023-05-19T00:29:05.736Z,1.13
2023-05-19T00:31:34.197Z,1.00
2023-05-19T00:34:01.664Z,1.20
2023-05-19T00:36:28.834Z,1.17
2023-05-19T00:38:56.310Z,1.30
2023-05-19T00:41:23.113Z,1.20
2023-05-19T00:43:52.974Z,1.05
2023-05-19T00:46:20.096Z,1.10
2023-05-19T00:48:47.833Z,1.00
2023-05-19T00:51:17.074Z,1.13
2023-05-19T00:53:49.064Z,1.38
2023-05-19T00:56:16.994Z,1.05
2023-05-19T00:58:44.633Z,1.05
2023-05-19T01:01:17.226Z,1.05
2023-05-19T01:03:45.048Z,0.95
2023-05-19T01:06:12.184Z,1.25
2023-05-19T01:08:39.583Z,1.05
2023-05-19T01:11:07.254Z,1.20
2023-05-19T01:13:35.793Z,1.02
2023-05-19T01:16:08.568Z,0.88
2023-05-19T01:18:56.191Z,1.02
2023-05-19T01:21:44.575Z,1.60
2023-05-19T01:24:30.533Z,1.15
2023-05-19T01:27:17.393Z,1.15
2023-05-19T01:30:06.098Z,1.20
2023-05-19T01:32:34.567Z,1.40
2023-05-19T01:35:05.616Z,1.38
2023-05-19T01:37:36.616Z,1.17
2023-05-19T01:40:03.765Z,2.13
2023-05-19T01:42:37.234Z,0.82
2023-05-19T01:45:06.785Z,1.25
2023-05-19T01:47:38.300Z,1.27
2023-05-19T01:50:05.997Z,0.98
2023-05-19T01:52:33.102Z,1.38
2023-05-19T01:55:00.150Z,0.90
2023-05-19T01:57:38.751Z,0.90
2023-05-19T02:00:21.813Z,1.17
2023-05-19T02:02:56.314Z,1.10
2023-05-19T02:05:45.943Z,1.20
2023-05-19T02:08:17.336Z,1.25
2023-05-19T02:10:50.331Z,1.20
2023-05-19T02:13:20.185Z,1.05
2023-05-19T02:15:48.577Z,1.00
2023-05-19T02:18:18.067Z,1.48
2023-05-19T02:20:49.685Z,1.45
2023-05-19T02:23:16.678Z,1.08
2023-05-19T02:25:43.484Z,1.10
2023-05-19T02:28:10.230Z,1.42
2023-05-19T02:30:37.067Z,1.23
2023-05-19T02:33:06.344Z,1.20
2023-05-19T02:35:35.960Z,1.13
2023-05-19T02:38:02.895Z,1.35
2023-05-19T02:40:29.752Z,1.45
2023-05-19T02:43:00.032Z,1.35
2023-05-19T02:45:28.619Z,1.30
2023-05-19T02:47:57.484Z,1.40
2023-05-19T02:50:25.403Z,1.55
2023-05-19T02:52:55.265Z,1.00
2023-05-19T02:55:22.091Z,1.00
2023-05-19T02:57:48.829Z,1.20
2023-05-19T03:00:16.065Z,1.10
2023-05-19T03:02:44.137Z,1.00
2023-05-19T03:05:11.678Z,1.30
2023-05-19T03:07:38.479Z,0.98
2023-05-19T03:10:06.660Z,1.20
2023-05-19T03:12:33.743Z,1.00
2023-05-19T03:15:01.022Z,1.17
2023-05-19T03:17:33.870Z,1.25
2023-05-19T03:20:01.868Z,0.85
2023-05-19T03:22:28.595Z,1.27
2023-05-19T03:24:55.936Z,1.30
2023-05-19T03:27:22.860Z,1.20
2023-05-19T03:29:49.721Z,1.15
2023-05-19T03:32:16.902Z,1.30
2023-05-19T03:34:43.672Z,1.08
2023-05-19T03:37:11.008Z,1.38
2023-05-19T03:39:39.780Z,1.10
2023-05-19T03:42:06.686Z,1.45
2023-05-19T03:44:33.508Z,1.27
2023-05-19T03:47:00.776Z,1.20
2023-05-19T03:49:49.988Z,1.00
2023-05-19T03:52:35.101Z,1.05
2023-05-19T03:55:22.936Z,1.40
2023-05-19T03:57:49.812Z,0.98
2023-05-19T04:00:20.242Z,1.40
2023-05-19T04:02:47.167Z,1.10
2023-05-19T04:05:17.683Z,1.23
2023-05-19T04:07:46.574Z,1.48
2023-05-19T04:10:13.764Z,1.10
2023-05-19T04:12:41.075Z,1.25
2023-05-19T04:15:11.424Z,1.35
2023-05-19T04:17:38.384Z,1.25
2023-05-19T04:20:08.481Z,1.05
2023-05-19T04:22:35.297Z,1.30
2023-05-19T04:25:05.870Z,1.20
2023-05-19T04:27:36.514Z,1.10
2023-05-19T04:30:04.954Z,1.35
2023-05-19T04:32:32.301Z,1.35
2023-05-19T04:34:59.899Z,0.98
2023-05-19T04:37:29.916Z,1.15
2023-05-19T04:39:57.749Z,1.20
2023-05-19T04:42:30.586Z,0.90
2023-05-19T04:44:59.006Z,1.10
2023-05-19T04:47:30.090Z,0.88
2023-05-19T04:49:57.743Z,1.00
2023-05-19T04:52:27.739Z,1.27
2023-05-19T04:54:56.231Z,1.42
2023-05-19T04:57:24.156Z,1.38
2023-05-19T04:59:51.107Z,1.33
2023-05-19T05:02:18.547Z,1.33
2023-05-19T05:04:46.633Z,1.00
2023-05-19T05:07:13.633Z,1.15
2023-05-19T05:09:41.328Z,1.00
2023-05-19T05:12:10.194Z,1.25
2023-05-19T05:14:40.300Z,1.15
2023-05-19T05:17:09.606Z,1.00
2023-05-19T05:19:36.647Z,1.13
2023-05-19T05:22:04.450Z,1.20
2023-05-19T05:24:31.958Z,1.30
2023-05-19T05:27:01.346Z,1.33
2023-05-19T05:29:28.815Z,0.98
2023-05-19T05:31:55.892Z,1.05
2023-05-19T05:34:23.761Z,1.17
2023-05-19T05:36:51.052Z,1.20
2023-05-19T05:39:20.025Z,1.40
2023-05-19T05:41:47.522Z,1.23
2023-05-19T05:44:14.390Z,1.08
2023-05-19T05:46:43.979Z,0.93
2023-05-19T05:49:14.412Z,1.63
2023-05-19T05:51:51.367Z,1.52
2023-05-19T05:54:33.042Z,1.20
2023-05-19T05:57:00.635Z,0.90
2023-05-19T05:59:27.526Z,1.20
2023-05-19T06:01:54.366Z,1.00
2023-05-19T06:04:21.856Z,1.10
2023-05-19T06:06:48.671Z,0.90
2023-05-19T06:09:20.285Z,1.17
2023-05-19T06:11:47.398Z,1.00
2023-05-19T06:14:14.443Z,1.13
2023-05-19T06:16:52.909Z,1.30
2023-05-19T06:19:20.177Z,1.00
2023-05-19T06:21:48.211Z,0.70
2023-05-19T06:24:15.641Z,1.00
2023-05-19T06:26:42.407Z,0.93
2023-05-19T06:29:09.350Z,1.13
2023-05-19T06:31:36.321Z,1.13
2023-05-19T06:34:12.424Z,1.30
2023-05-19T06:36:41.365Z,0.95
2023-05-19T06:39:08.952Z,1.10
2023-05-19T06:41:36.355Z,1.25
2023-05-19T06:44:04.418Z,1.05
2023-05-19T06:46:35.762Z,1.20
2023-05-19T06:49:04.083Z,1.23
2023-05-19T06:51:36.457Z,1.25
2023-05-19T06:54:03.288Z,1.75
2023-05-19T06:56:30.066Z,1.10
2023-05-19T06:58:59.322Z,1.30
2023-05-19T07:01:31.842Z,1.05
2023-05-19T07:03:59.487Z,0.98
2023-05-19T07:06:26.596Z,0.88
2023-05-19T07:08:53.446Z,1.10
2023-05-19T07:11:21.614Z,0.98
2023-05-19T07:13:48.775Z,1.17
2023-05-19T07:16:21.954Z,1.33
2023-05-19T07:18:48.763Z,1.20
2023-05-19T07:21:16.468Z,1.02
2023-05-19T07:23:43.246Z,1.05
2023-05-19T07:26:11.641Z,1.13
2023-05-19T07:28:40.780Z,1.35
2023-05-19T07:31:08.386Z,1.60
2023-05-19T07:33:35.133Z,1.63
2023-05-19T07:36:02.160Z,1.23
2023-05-19T07:38:36.298Z,1.10
2023-05-19T07:41:03.416Z,1.17
2023-05-19T07:43:30.171Z,1.35
2023-05-19T07:45:57.252Z,1.10
2023-05-19T07:48:25.705Z,1.15
2023-05-19T07:50:55.377Z,1.40
2023-05-19T07:53:22.710Z,0.95
2023-05-19T07:55:49.812Z,0.98
2023-05-19T07:58:16.673Z,1.25
2023-05-19T08:00:45.842Z,0.90
2023-05-19T08:03:13.385Z,1.13
2023-05-19T08:05:40.620Z,1.17
2023-05-19T08:08:07.400Z,1.00
2023-05-19T08:10:34.596Z,1.15
2023-05-19T08:13:01.611Z,0.82
2023-05-19T08:15:28.721Z,0.80
2023-05-19T08:17:55.768Z,1.25
2023-05-19T08:20:24.340Z,1.15
2023-05-19T08:22:51.191Z,1.20
2023-05-19T08:25:19.699Z,1.15
2023-05-19T08:27:48.696Z,0.97
2023-05-19T08:30:15.539Z,0.80
2023-05-19T08:32:44.821Z,0.80
2023-05-19T08:35:11.625Z,1.52
2023-05-19T08:37:38.754Z,1.20
2023-05-19T08:40:07.224Z,1.17
2023-05-19T08:42:34.573Z,0.90
2023-05-19T08:45:02.509Z,1.00
2023-05-19T08:47:32.173Z,1.40
2023-05-19T08:50:07.970Z,1.02
2023-05-19T08:53:01.475Z,1.42
2023-05-19T08:55:39.750Z,1.02
2023-05-19T08:58:07.452Z,0.88
2023-05-19T09:00:34.812Z,1.25
2023-05-19T09:03:17.389Z,1.02
2023-05-19T09:05:46.614Z,1.10
2023-05-19T09:08:13.813Z,0.90
2023-05-19T09:10:40.870Z,1.17
2023-05-19T09:13:07.718Z,1.10
2023-05-19T09:15:39.193Z,1.00
2023-05-19T09:18:15.306Z,1.23
2023-05-19T09:20:44.053Z,0.77
2023-05-19T09:23:18.181Z,0.68
2023-05-19T09:25:49.166Z,0.85
2023-05-19T09:28:24.103Z,1.20
2023-05-19T09:31:00.048Z,1.00
2023-05-19T09:33:28.169Z,0.80
2023-05-19T09:35:58.565Z,0.73
2023-05-19T09:38:26.892Z,0.57
2023-05-19T09:40:56.992Z,1.10
2023-05-19T09:43:23.947Z,0.82
2023-05-19T09:46:07.573Z,1.02
2023-05-19T09:48:38.161Z,1.08
2023-05-19T09:51:07.624Z,0.88
2023-05-19T09:53:34.909Z,1.00
2023-05-19T09:56:03.506Z,0.93
2023-05-19T09:58:37.660Z,1.17
2023-05-19T10:01:05.699Z,0.98
2023-05-19T10:03:35.216Z,0.90
2023-05-19T10:06:05.725Z,0.90
2023-05-19T10:08:34.253Z,1.30
2023-05-19T10:11:01.706Z,1.13
2023-05-19T10:13:30.820Z,1.10
2023-05-19T10:15:59.904Z,1.20
2023-05-19T10:18:30.186Z,0.80
2023-05-19T10:20:58.011Z,1.05
2023-05-19T10:23:28.160Z,0.80
2023-05-19T10:25:58.746Z,0.90
2023-05-19T10:28:31.392Z,0.83
2023-05-19T10:31:01.434Z,0.98
2023-05-19T10:33:57.807Z,1.00
2023-05-19T10:36:31.312Z,0.88
2023-05-19T10:39:18.457Z,1.20
2023-05-19T10:41:53.472Z,0.95
2023-05-19T10:44:41.011Z,0.88
2023-05-19T10:47:08.739Z,0.70
2023-05-19T10:49:36.853Z,0.88
2023-05-19T10:52:04.338Z,0.73
2023-05-19T10:54:41.383Z,0.73
2023-05-19T10:57:09.936Z,0.93
2023-05-19T10:59:37.868Z,1.00
2023-05-19T11:02:05.686Z,0.88
2023-05-19T11:04:54.225Z,1.00
2023-05-19T11:07:22.265Z,1.33
2023-05-19T11:09:52.645Z,0.80
2023-05-19T11:12:24.617Z,0.95
2023-05-19T11:14:55.273Z,1.23
2023-05-19T11:17:24.588Z,1.00
2023-05-19T11:19:55.897Z,1.65
2023-05-19T11:22:25.810Z,0.80
2023-05-19T11:24:55.314Z,1.42
2023-05-19T11:27:31.640Z,0.98
2023-05-19T11:30:07.549Z,0.88
2023-05-19T11:32:38.945Z,0.70
2023-05-19T11:35:06.622Z,0.70
2023-05-19T11:37:34.578Z,1.27
2023-05-19T11:40:07.157Z,1.00
2023-05-19T11:42:35.222Z,1.02
2023-05-19T11:45:02.191Z,1.20
2023-05-19T11:47:36.149Z,1.10
2023-05-19T11:50:12.749Z,2.20
2023-05-19T11:52:44.730Z,1.10
2023-05-19T11:55:16.469Z,0.88
2023-05-19T11:58:04.492Z,0.88
2023-05-19T12:00:39.537Z,1.00
2023-05-19T12:03:10.652Z,1.02
2023-05-19T12:05:43.508Z,1.10
2023-05-19T12:08:11.725Z,1.30
2023-05-19T12:10:39.942Z,1.30
2023-05-19T12:13:10.189Z,1.00
2023-05-19T12:15:37.384Z,1.00
2023-05-19T12:18:04.352Z,0.88
2023-05-19T12:20:36.935Z,0.95
2023-05-19T12:23:05.675Z,1.00
2023-05-19T12:25:33.197Z,1.20
2023-05-19T12:28:03.098Z,1.15
2023-05-19T12:30:35.329Z,0.93
2023-05-19T12:33:03.280Z,1.15
2023-05-19T12:35:36.025Z,1.20
2023-05-19T12:38:04.853Z,1.25
2023-05-19T12:40:33.939Z,1.08
2023-05-19T12:43:01.374Z,1.15
2023-05-19T12:45:28.822Z,1.10
2023-05-19T12:47:56.191Z,1.05
2023-05-19T12:50:30.968Z,1.00
2023-05-19T12:52:59.646Z,0.60
2023-05-19T12:55:26.470Z,1.33
2023-05-19T12:57:59.538Z,1.00
2023-05-19T13:00:29.013Z,0.90
2023-05-19T13:03:05.271Z,0.90
2023-05-19T13:05:39.871Z,0.90
2023-05-19T13:08:11.036Z,1.00
2023-05-19T13:10:39.077Z,1.00
2023-05-19T13:13:06.830Z,1.08
2023-05-19T13:15:35.688Z,0.90
2023-05-19T13:18:09.314Z,0.82
2023-05-19T13:23:04.809Z,0.85
2023-05-19T13:25:35.738Z,1.35
2023-05-19T13:28:06.692Z,1.15
2023-05-19T13:30:35.261Z,1.30
2023-05-19T13:33:02.897Z,0.70
2023-05-19T13:35:30.694Z,1.25
2023-05-19T13:37:57.754Z,1.25
2023-05-19T13:40:25.884Z,1.00
2023-05-19T13:42:52.731Z,0.98
2023-05-19T13:45:19.500Z,0.90
2023-05-19T13:47:46.311Z,1.27
2023-05-19T13:50:16.061Z,1.25
2023-05-19T13:52:42.991Z,0.88
2023-05-19T13:55:10.002Z,0.98
2023-05-19T13:57:37.031Z,0.98
2023-05-19T14:00:05.236Z,0.93
2023-05-19T14:02:43.131Z,1.00
2023-05-19T14:05:10.311Z,0.95
2023-05-19T14:07:37.051Z,0.98
2023-05-19T14:10:06.874Z,0.90
2023-05-19T14:12:45.090Z,1.23
2023-05-19T14:15:21.744Z,1.17
2023-05-19T14:17:49.070Z,1.10
2023-05-19T14:20:16.099Z,1.10
2023-05-19T14:22:42.866Z,0.82
2023-05-19T14:25:12.128Z,1.10
2023-05-19T14:27:40.064Z,1.40
2023-05-19T14:30:07.982Z,1.00
2023-05-19T14:32:34.953Z,1.27
2023-05-19T14:35:01.931Z,1.13
2023-05-19T14:37:28.985Z,1.27
2023-05-19T14:40:00.634Z,1.00
2023-05-19T14:42:27.414Z,0.82
2023-05-19T14:44:54.144Z,1.00
2023-05-19T14:47:26.183Z,1.17
2023-05-19T14:49:56.480Z,1.10
2023-05-19T14:52:26.330Z,0.77
2023-05-19T14:54:53.200Z,0.95
2023-05-19T14:57:25.400Z,1.00
2023-05-19T14:59:52.119Z,0.93
2023-05-19T15:02:18.929Z,1.40
2023-05-19T15:04:48.119Z,0.90
2023-05-19T15:07:14.836Z,1.23
2023-05-19T15:09:41.593Z,0.95
2023-05-19T15:12:08.405Z,1.08
2023-05-19T15:14:35.125Z,2.88
2023-05-19T15:17:01.858Z,1.20
2023-05-19T15:19:28.762Z,1.40
2023-05-19T15:21:55.738Z,1.33
2023-05-19T15:24:22.598Z,1.10
2023-05-19T15:26:49.610Z,0.75
2023-05-19T15:29:16.394Z,1.10
2023-05-19T15:31:43.407Z,0.77
2023-05-19T15:34:10.304Z,0.90
2023-05-19T15:36:38.982Z,0.90
2023-05-19T15:39:08.253Z,1.02
2023-05-19T15:41:35.304Z,1.00
2023-05-19T15:44:02.777Z,0.93
2023-05-19T15:46:30.434Z,1.10
2023-05-19T15:48:59.791Z,1.40
2023-05-19T15:51:26.726Z,1.00
2023-05-19T15:53:53.576Z,0.90
2023-05-19T15:56:21.516Z,1.20
2023-05-19T15:58:48.459Z,0.95
2023-05-19T16:01:18.342Z,1.10
2023-05-19T16:03:48.034Z,1.30
2023-05-19T16:06:14.943Z,1.45
2023-05-19T16:08:41.989Z,0.75
2023-05-19T16:11:08.781Z,1.30
2023-05-19T16:13:35.708Z,1.25
2023-05-19T16:16:02.723Z,1.40
2023-05-19T16:18:29.809Z,1.17
2023-05-19T16:20:59.132Z,1.10
2023-05-19T16:23:27.420Z,0.80
2023-05-19T16:25:54.901Z,0.80
2023-05-19T16:28:23.835Z,0.85
2023-05-19T16:30:51.534Z,1.15
2023-05-19T16:33:19.053Z,1.98
2023-05-19T16:35:46.033Z,1.45
2023-05-19T16:38:12.885Z,1.17
2023-05-19T16:40:39.973Z,1.08
2023-05-19T16:43:06.713Z,1.08
2023-05-19T16:45:33.572Z,1.10
2023-05-19T16:48:00.438Z,1.05
2023-05-19T16:50:27.341Z,0.85
2023-05-19T16:52:54.144Z,0.90
2023-05-19T16:55:20.970Z,1.10
2023-05-19T16:57:47.748Z,0.98
2023-05-19T17:00:15.122Z,1.58
2023-05-19T17:02:41.944Z,1.40
2023-05-19T17:05:08.958Z,1.20
2023-05-19T17:07:35.896Z,0.85
2023-05-19T17:10:02.724Z,2.58
2023-05-19T17:12:29.514Z,1.33
2023-05-19T17:14:57.094Z,1.08
2023-05-19T17:17:23.885Z,1.02
2023-05-19T17:19:51.010Z,0.95
2023-05-19T17:22:17.764Z,0.90
2023-05-19T17:24:44.841Z,0.82
2023-05-19T17:27:11.608Z,1.42
2023-05-19T17:29:38.453Z,1.23
2023-05-19T17:32:05.413Z,1.02
2023-05-19T17:34:32.377Z,1.23
2023-05-19T17:36:59.092Z,1.00
2023-05-19T17:39:25.891Z,0.90
2023-05-19T17:41:52.666Z,1.17
2023-05-19T17:44:19.408Z,0.90
2023-05-19T17:46:46.180Z,1.40
2023-05-19T17:49:13.809Z,0.70
2023-05-19T17:51:40.920Z,1.13
2023-05-19T17:54:08.003Z,0.95
2023-05-19T17:56:41.875Z,1.77
2023-05-19T17:59:09.035Z,1.20
2023-05-19T18:01:36.163Z,1.00
2023-05-19T18:04:03.679Z,0.90
2023-05-19T18:06:31.816Z,0.85
2023-05-19T18:09:00.976Z,1.13
2023-05-19T18:11:27.986Z,1.08
2023-05-19T18:13:54.886Z,1.00
2023-05-19T18:16:22.010Z,0.98
2023-05-19T18:18:50.400Z,1.05
2023-05-19T18:21:17.997Z,0.98
2023-05-19T18:23:46.036Z,1.25
2023-05-19T18:26:13.430Z,0.90
2023-05-19T18:28:41.234Z,1.08
2023-05-19T18:31:17.146Z,0.90
2023-05-19T18:33:44.246Z,1.55
2023-05-19T18:36:11.125Z,1.25
2023-05-19T18:38:38.004Z,1.00
2023-05-19T18:41:07.473Z,1.10
2023-05-19T18:43:34.497Z,1.02
2023-05-19T18:46:01.407Z,1.17
2023-05-19T18:48:28.239Z,0.93
2023-05-19T18:50:55.056Z,1.10
2023-05-19T18:53:22.709Z,1.13
2023-05-19T18:55:54.398Z,0.82
2023-05-19T18:58:21.592Z,0.77
2023-05-19T19:00:48.543Z,1.02
2023-05-19T19:03:16.220Z,1.20
2023-05-19T19:05:43.903Z,1.17
2023-05-19T19:08:11.024Z,1.08
2023-05-19T19:10:40.614Z,1.10
2023-05-19T19:13:07.613Z,1.20
2023-05-19T19:15:34.392Z,1.05
2023-05-19T19:18:02.206Z,1.20
2023-05-19T19:20:29.104Z,1.20
2023-05-19T19:22:55.958Z,0.90
2023-05-19T19:25:23.718Z,1.05
2023-05-19T19:27:50.828Z,1.38
2023-05-19T19:30:17.678Z,1.38
2023-05-19T19:32:44.479Z,1.27
2023-05-19T19:35:11.549Z,1.42
2023-05-19T19:37:38.450Z,1.23
2023-05-19T19:40:06.125Z,1.27
2023-05-19T19:42:33.142Z,1.45
2023-05-19T19:45:00.023Z,1.35
2023-05-19T19:47:27.431Z,1.65
2023-05-19T19:49:54.403Z,1.52
2023-05-19T19:52:21.426Z,1.83
2023-05-19T19:54:48.301Z,2.08
2023-05-19T19:57:17.251Z,1.55
2023-05-19T19:59:44.184Z,1.85
2023-05-19T20:02:11.152Z,1.90
2023-05-19T20:04:38.308Z,1.60
2023-05-19T20:07:05.219Z,1.48
2023-05-19T20:09:31.941Z,1.80
2023-05-19T20:11:58.706Z,2.00
2023-05-19T20:14:26.007Z,1.50
2023-05-19T20:16:52.765Z,1.90
2023-05-19T20:19:19.611Z,1.85
2023-05-19T20:21:46.386Z,1.90
2023-05-19T20:24:13.275Z,1.85
2023-05-19T20:26:40.096Z,1.90
2023-05-19T20:29:08.521Z,1.95
2023-05-19T20:31:37.106Z,2.35
2023-05-19T20:34:06.593Z,2.20
2023-05-19T20:36:33.354Z,2.03
2023-05-19T20:39:00.256Z,2.20
2023-05-19T20:41:27.390Z,2.05
2023-05-19T20:43:54.983Z,2.47
2023-05-19T20:46:22.020Z,2.08
2023-05-19T20:48:48.840Z,2.03
2023-05-19T20:51:15.714Z,2.03
2023-05-19T20:53:42.922Z,2.40
2023-05-19T20:56:10.594Z,2.20
2023-05-19T20:58:40.539Z,2.22
2023-05-19T21:01:07.483Z,2.40
2023-05-19T21:03:34.260Z,2.42
2023-05-19T21:06:01.258Z,2.17
2023-05-19T21:08:28.011Z,2.00
2023-05-19T21:10:54.839Z,2.33
2023-05-19T21:13:21.627Z,2.30
2023-05-19T21:15:48.385Z,2.38
2023-05-19T21:18:15.181Z,2.17
2023-05-19T21:20:42.129Z,2.10
2023-05-19T21:23:08.951Z,1.95
2023-05-19T21:25:35.894Z,1.95
2023-05-19T21:28:03.292Z,1.80
2023-05-19T21:30:30.281Z,1.98
2023-05-19T21:32:57.349Z,2.22
2023-05-19T21:35:24.271Z,1.92
2023-05-19T21:37:50.986Z,1.75
2023-05-19T21:40:17.755Z,1.52
2023-05-19T21:42:44.620Z,1.65
2023-05-19T21:45:11.585Z,1.45
2023-05-19T21:47:38.349Z,1.10
2023-05-19T21:50:05.597Z,1.20
2023-05-19T21:52:32.341Z,1.20
2023-05-19T21:54:59.149Z,1.27
2023-05-19T21:57:25.905Z,0.98
2023-05-19T21:59:52.644Z,1.08
2023-05-19T22:02:19.392Z,0.98
2023-05-19T22:04:46.292Z,1.10
2023-05-19T22:07:13.077Z,1.17
2023-05-19T22:09:39.871Z,1.33
2023-05-19T22:12:07.229Z,1.10
2023-05-19T22:14:34.012Z,1.02
2023-05-19T22:17:00.765Z,1.20
2023-05-19T22:19:27.786Z,1.52
2023-05-19T22:22:01.983Z,1.13
2023-05-19T22:24:36.969Z,1.00
2023-05-19T22:27:03.914Z,1.08
2023-05-19T22:29:30.823Z,1.10
2023-05-19T22:31:57.519Z,1.13
2023-05-19T22:34:24.338Z,1.40
2023-05-19T22:36:51.182Z,1.48
2023-05-19T22:39:17.975Z,0.82
2023-05-19T22:41:45.420Z,1.15
2023-05-19T22:44:16.056Z,1.40
2023-05-19T22:46:44.275Z,1.10
2023-05-19T22:49:11.064Z,1.10
2023-05-19T22:51:39.288Z,1.38
2023-05-19T22:54:06.939Z,1.48
2023-05-19T22:56:33.850Z,1.52
2023-05-19T22:59:00.859Z,1.40
2023-05-19T23:01:27.733Z,1.52
2023-05-19T23:03:55.072Z,0.93
2023-05-19T23:06:22.175Z,1.13
2023-05-19T23:09:01.548Z,1.15
2023-05-19T23:11:28.387Z,1.23
2023-05-19T23:13:55.544Z,1.15
2023-05-19T23:16:22.746Z,1.23
2023-05-19T23:18:49.509Z,1.10
2023-05-19T23:21:16.479Z,1.30
2023-05-19T23:23:43.252Z,1.38
2023-05-19T23:26:10.019Z,1.33
2023-05-19T23:28:36.788Z,1.15
2023-05-19T23:31:03.662Z,1.50
2023-05-19T23:33:30.553Z,1.40
2023-05-19T23:35:58.669Z,1.27
2023-05-19T23:38:25.674Z,1.80
2023-05-19T23:40:52.398Z,1.20
2023-05-19T23:43:19.104Z,1.30
2023-05-19T23:45:45.918Z,1.20
2023-05-19T23:48:12.671Z,1.38
2023-05-19T23:50:39.428Z,1.48
2023-05-19T23:53:06.249Z,1.23
2023-05-19T23:55:33.421Z,1.33
2023-05-19T23:58:00.582Z,1.13
